sensor_id;sensor_type;location;lat;lon;timestamp;temperature;humidity
42715;DHT22;28351;51.480;5.706;2023-01-01T00:01:35;15.40;99.90
42715;DHT22;28351;51.480;5.706;2023-01-01T00:04:05;15.30;99.90
42715;DHT22;28351;51.480;5.706;2023-01-01T00:06:33;15.40;99.90
42715;DHT22;28351;51.480;5.706;2023-01-01T00:08:58;15.40;99.90
42715;DHT22;28351;51.480;5.706;2023-01-01T00:11:43;15.50;99.90
42715;DHT22;28351;51.480;5.706;2023-01-01T00:14:08;15.50;99.90
42715;DHT22;28351;51.480;5.706;2023-01-01T00:16:34;15.50;99.90
42715;DHT22;28351;51.480;5.706;2023-01-01T00:19:00;15.50;99.90
42715;DHT22;28351;51.480;5.706;2023-01-01T00:21:25;15.50;99.90
42715;DHT22;28351;51.480;5.706;2023-01-01T00:23:55;15.50;99.90
42715;DHT22;28351;51.480;5.706;2023-01-01T00:26:21;15.40;99.90
42715;DHT22;28351;51.480;5.706;2023-01-01T00:28:46;15.30;99.90
42715;DHT22;28351;51.480;5.706;2023-01-01T00:31:18;15.20;99.90
42715;DHT22;28351;51.480;5.706;2023-01-01T00:33:45;15.20;99.90
42715;DHT22;28351;51.480;5.706;2023-01-01T00:36:13;15.30;99.90
42715;DHT22;28351;51.480;5.706;2023-01-01T00:38:39;15.30;99.90
42715;DHT22;28351;51.480;5.706;2023-01-01T00:41:07;15.30;99.90
42715;DHT22;28351;51.480;5.706;2023-01-01T00:43:33;15.30;99.90
42715;DHT22;28351;51.480;5.706;2023-01-01T00:46:06;15.40;99.90
42715;DHT22;28351;51.480;5.706;2023-01-01T00:48:38;15.30;99.90
42715;DHT22;28351;51.480;5.706;2023-01-01T00:51:04;15.40;99.90
42715;DHT22;28351;51.480;5.706;2023-01-01T00:53:30;15.40;99.90
42715;DHT22;28351;51.480;5.706;2023-01-01T00:55:56;15.40;99.90
42715;DHT22;28351;51.480;5.706;2023-01-01T00:58:24;15.40;99.90
42715;DHT22;28351;51.480;5.706;2023-01-01T01:00:51;15.40;99.90
42715;DHT22;28351;51.480;5.706;2023-01-01T01:03:17;15.40;99.90
42715;DHT22;28351;51.480;5.706;2023-01-01T01:06:14;15.40;99.90
42715;DHT22;28351;51.480;5.706;2023-01-01T01:08:43;15.30;99.90
42715;DHT22;28351;51.480;5.706;2023-01-01T01:11:22;15.30;99.90
42715;DHT22;28351;51.480;5.706;2023-01-01T01:13:50;15.30;99.90
42715;DHT22;28351;51.480;5.706;2023-01-01T01:18:44;15.30;99.90
42715;DHT22;28351;51.480;5.706;2023-01-01T01:21:10;15.40;99.90
42715;DHT22;28351;51.480;5.706;2023-01-01T01:23:38;15.40;99.90
42715;DHT22;28351;51.480;5.706;2023-01-01T01:26:09;15.30;99.90
42715;DHT22;28351;51.480;5.706;2023-01-01T01:28:35;15.30;99.90
42715;DHT22;28351;51.480;5.706;2023-01-01T01:31:00;15.20;99.90
42715;DHT22;28351;51.480;5.706;2023-01-01T01:33:26;15.10;99.90
42715;DHT22;28351;51.480;5.706;2023-01-01T01:35:52;15.00;99.90
42715;DHT22;28351;51.480;5.706;2023-01-01T01:38:17;14.90;99.90
42715;DHT22;28351;51.480;5.706;2023-01-01T01:40:43;15.00;99.90
42715;DHT22;28351;51.480;5.706;2023-01-01T01:45:58;14.90;99.90
42715;DHT22;28351;51.480;5.706;2023-01-01T01:48:25;15.00;99.90
42715;DHT22;28351;51.480;5.706;2023-01-01T01:50:51;15.00;99.90
42715;DHT22;28351;51.480;5.706;2023-01-01T01:53:24;15.00;99.90
42715;DHT22;28351;51.480;5.706;2023-01-01T01:55:57;15.00;99.90
42715;DHT22;28351;51.480;5.706;2023-01-01T01:58:24;15.00;99.90
42715;DHT22;28351;51.480;5.706;2023-01-01T02:00:51;15.00;99.90
42715;DHT22;28351;51.480;5.706;2023-01-01T02:03:23;15.00;99.90
42715;DHT22;28351;51.480;5.706;2023-01-01T02:05:51;15.00;99.90
42715;DHT22;28351;51.480;5.706;2023-01-01T02:08:19;15.00;99.90
42715;DHT22;28351;51.480;5.706;2023-01-01T02:10:45;14.90;99.90
42715;DHT22;28351;51.480;5.706;2023-01-01T02:13:11;14.80;99.90
42715;DHT22;28351;51.480;5.706;2023-01-01T02:16:05;14.80;99.90
42715;DHT22;28351;51.480;5.706;2023-01-01T02:24:58;14.90;99.90
42715;DHT22;28351;51.480;5.706;2023-01-01T02:30:06;14.80;99.90
42715;DHT22;28351;51.480;5.706;2023-01-01T02:32:55;14.70;99.90
42715;DHT22;28351;51.480;5.706;2023-01-01T02:35:49;14.70;99.90
42715;DHT22;28351;51.480;5.706;2023-01-01T02:40:56;14.70;99.90
42715;DHT22;28351;51.480;5.706;2023-01-01T02:43:22;14.70;99.90
42715;DHT22;28351;51.480;5.706;2023-01-01T02:45:52;14.80;99.90
42715;DHT22;28351;51.480;5.706;2023-01-01T03:02:29;14.70;99.90
42715;DHT22;28351;51.480;5.706;2023-01-01T03:10:05;14.80;99.90
42715;DHT22;28351;51.480;5.706;2023-01-01T03:12:39;14.90;99.90
42715;DHT22;28351;51.480;5.706;2023-01-01T03:21:09;14.90;99.90
42715;DHT22;28351;51.480;5.706;2023-01-01T03:23:41;14.80;99.90
42715;DHT22;28351;51.480;5.706;2023-01-01T03:26:12;14.80;99.90
42715;DHT22;28351;51.480;5.706;2023-01-01T03:28:52;14.70;99.90
42715;DHT22;28351;51.480;5.706;2023-01-01T03:31:25;14.70;99.90
42715;DHT22;28351;51.480;5.706;2023-01-01T03:34:00;14.60;99.90
42715;DHT22;28351;51.480;5.706;2023-01-01T03:36:34;14.60;99.90
42715;DHT22;28351;51.480;5.706;2023-01-01T03:39:14;14.60;99.90
42715;DHT22;28351;51.480;5.706;2023-01-01T03:44:44;14.50;99.90
42715;DHT22;28351;51.480;5.706;2023-01-01T03:47:11;14.50;99.90
42715;DHT22;28351;51.480;5.706;2023-01-01T03:49:37;14.60;99.90
42715;DHT22;28351;51.480;5.706;2023-01-01T03:52:15;14.60;99.90
42715;DHT22;28351;51.480;5.706;2023-01-01T03:55:05;14.50;99.90
42715;DHT22;28351;51.480;5.706;2023-01-01T04:01:00;14.60;99.90
42715;DHT22;28351;51.480;5.706;2023-01-01T04:03:26;14.50;99.90
42715;DHT22;28351;51.480;5.706;2023-01-01T04:05:53;14.50;99.90
42715;DHT22;28351;51.480;5.706;2023-01-01T04:08:19;14.50;99.90
42715;DHT22;28351;51.480;5.706;2023-01-01T04:10:49;14.50;99.90
42715;DHT22;28351;51.480;5.706;2023-01-01T04:13:15;14.50;99.90
42715;DHT22;28351;51.480;5.706;2023-01-01T04:15:41;14.50;99.90
42715;DHT22;28351;51.480;5.706;2023-01-01T04:18:06;14.40;99.90
42715;DHT22;28351;51.480;5.706;2023-01-01T04:20:32;14.40;99.90
42715;DHT22;28351;51.480;5.706;2023-01-01T04:23:01;14.40;99.90
42715;DHT22;28351;51.480;5.706;2023-01-01T04:25:27;14.50;99.90
42715;DHT22;28351;51.480;5.706;2023-01-01T04:27:53;14.60;99.90
42715;DHT22;28351;51.480;5.706;2023-01-01T04:30:21;14.50;99.90
42715;DHT22;28351;51.480;5.706;2023-01-01T04:32:47;14.40;99.90
42715;DHT22;28351;51.480;5.706;2023-01-01T04:35:13;14.30;99.90
42715;DHT22;28351;51.480;5.706;2023-01-01T04:37:41;14.10;99.90
42715;DHT22;28351;51.480;5.706;2023-01-01T04:40:07;14.10;99.90
42715;DHT22;28351;51.480;5.706;2023-01-01T04:42:34;14.10;99.90
42715;DHT22;28351;51.480;5.706;2023-01-01T04:45:12;14.10;99.90
42715;DHT22;28351;51.480;5.706;2023-01-01T04:47:39;14.10;99.90
42715;DHT22;28351;51.480;5.706;2023-01-01T04:50:06;14.10;99.90
42715;DHT22;28351;51.480;5.706;2023-01-01T04:52:32;14.20;99.90
42715;DHT22;28351;51.480;5.706;2023-01-01T04:54:57;14.20;99.90
42715;DHT22;28351;51.480;5.706;2023-01-01T04:57:29;14.20;99.90
42715;DHT22;28351;51.480;5.706;2023-01-01T04:59:55;14.10;99.90
42715;DHT22;28351;51.480;5.706;2023-01-01T05:02:20;14.10;99.90
42715;DHT22;28351;51.480;5.706;2023-01-01T05:07:21;14.20;99.90
42715;DHT22;28351;51.480;5.706;2023-01-01T05:09:47;14.10;99.90
42715;DHT22;28351;51.480;5.706;2023-01-01T05:12:18;14.10;99.90
42715;DHT22;28351;51.480;5.706;2023-01-01T05:14:44;14.20;99.90
42715;DHT22;28351;51.480;5.706;2023-01-01T05:17:10;14.20;99.90
42715;DHT22;28351;51.480;5.706;2023-01-01T05:19:35;14.20;99.90
42715;DHT22;28351;51.480;5.706;2023-01-01T05:22:01;14.20;99.90
42715;DHT22;28351;51.480;5.706;2023-01-01T05:24:26;14.30;99.90
42715;DHT22;28351;51.480;5.706;2023-01-01T05:26:52;14.20;99.90
42715;DHT22;28351;51.480;5.706;2023-01-01T05:29:17;14.30;99.90
42715;DHT22;28351;51.480;5.706;2023-01-01T05:31:44;14.20;99.90
42715;DHT22;28351;51.480;5.706;2023-01-01T05:34:22;14.20;99.90
42715;DHT22;28351;51.480;5.706;2023-01-01T05:36:49;14.20;99.90
42715;DHT22;28351;51.480;5.706;2023-01-01T05:39:15;14.20;99.90
42715;DHT22;28351;51.480;5.706;2023-01-01T05:41:40;14.20;99.90
42715;DHT22;28351;51.480;5.706;2023-01-01T05:44:06;14.20;99.90
42715;DHT22;28351;51.480;5.706;2023-01-01T05:46:33;14.20;99.90
42715;DHT22;28351;51.480;5.706;2023-01-01T05:48:59;14.20;99.90
42715;DHT22;28351;51.480;5.706;2023-01-01T05:51:27;14.10;99.90
42715;DHT22;28351;51.480;5.706;2023-01-01T05:53:54;14.20;99.90
42715;DHT22;28351;51.480;5.706;2023-01-01T05:56:20;14.20;99.90
42715;DHT22;28351;51.480;5.706;2023-01-01T05:58:46;14.20;99.90
42715;DHT22;28351;51.480;5.706;2023-01-01T06:01:18;14.20;99.90
42715;DHT22;28351;51.480;5.706;2023-01-01T06:03:45;14.30;99.90
42715;DHT22;28351;51.480;5.706;2023-01-01T06:06:14;14.20;99.90
42715;DHT22;28351;51.480;5.706;2023-01-01T06:08:40;14.20;99.90
42715;DHT22;28351;51.480;5.706;2023-01-01T06:11:10;14.20;99.90
42715;DHT22;28351;51.480;5.706;2023-01-01T06:13:36;14.20;99.90
42715;DHT22;28351;51.480;5.706;2023-01-01T06:16:02;14.10;99.90
42715;DHT22;28351;51.480;5.706;2023-01-01T06:18:30;14.10;99.90
42715;DHT22;28351;51.480;5.706;2023-01-01T06:21:07;14.00;99.90
42715;DHT22;28351;51.480;5.706;2023-01-01T06:23:33;14.10;99.90
42715;DHT22;28351;51.480;5.706;2023-01-01T06:26:06;14.10;99.90
42715;DHT22;28351;51.480;5.706;2023-01-01T06:28:32;14.10;99.90
42715;DHT22;28351;51.480;5.706;2023-01-01T06:31:01;14.10;99.90
42715;DHT22;28351;51.480;5.706;2023-01-01T06:33:28;14.00;99.90
42715;DHT22;28351;51.480;5.706;2023-01-01T06:35:54;14.00;99.90
42715;DHT22;28351;51.480;5.706;2023-01-01T06:38:19;13.90;99.90
42715;DHT22;28351;51.480;5.706;2023-01-01T06:40:55;13.90;99.90
42715;DHT22;28351;51.480;5.706;2023-01-01T06:43:20;13.90;99.90
42715;DHT22;28351;51.480;5.706;2023-01-01T06:45:46;13.80;99.90
42715;DHT22;28351;51.480;5.706;2023-01-01T06:48:11;13.90;99.90
42715;DHT22;28351;51.480;5.706;2023-01-01T06:50:37;13.80;99.90
42715;DHT22;28351;51.480;5.706;2023-01-01T06:53:09;13.80;99.90
42715;DHT22;28351;51.480;5.706;2023-01-01T06:55:34;13.70;99.90
42715;DHT22;28351;51.480;5.706;2023-01-01T06:58:02;13.50;99.90
42715;DHT22;28351;51.480;5.706;2023-01-01T07:00:33;13.20;99.90
42715;DHT22;28351;51.480;5.706;2023-01-01T07:02:59;12.90;99.90
42715;DHT22;28351;51.480;5.706;2023-01-01T07:05:24;12.50;99.90
42715;DHT22;28351;51.480;5.706;2023-01-01T07:07:50;12.30;99.90
42715;DHT22;28351;51.480;5.706;2023-01-01T07:10:15;12.10;99.90
42715;DHT22;28351;51.480;5.706;2023-01-01T07:12:41;12.00;99.90
42715;DHT22;28351;51.480;5.706;2023-01-01T07:15:07;11.90;99.90
42715;DHT22;28351;51.480;5.706;2023-01-01T07:17:33;11.90;99.90
42715;DHT22;28351;51.480;5.706;2023-01-01T07:19:58;11.80;99.90
42715;DHT22;28351;51.480;5.706;2023-01-01T07:22:24;11.80;99.90
42715;DHT22;28351;51.480;5.706;2023-01-01T07:24:51;11.70;99.90
42715;DHT22;28351;51.480;5.706;2023-01-01T07:27:16;11.70;99.90
42715;DHT22;28351;51.480;5.706;2023-01-01T07:29:42;11.70;99.90
42715;DHT22;28351;51.480;5.706;2023-01-01T07:32:11;11.70;99.90
42715;DHT22;28351;51.480;5.706;2023-01-01T07:34:37;11.60;99.90
42715;DHT22;28351;51.480;5.706;2023-01-01T07:37:03;11.60;99.90
42715;DHT22;28351;51.480;5.706;2023-01-01T07:39:28;11.60;99.90
42715;DHT22;28351;51.480;5.706;2023-01-01T07:41:54;11.60;99.90
42715;DHT22;28351;51.480;5.706;2023-01-01T07:44:20;11.60;99.90
42715;DHT22;28351;51.480;5.706;2023-01-01T07:46:45;11.60;99.90
42715;DHT22;28351;51.480;5.706;2023-01-01T07:49:11;11.60;99.90
42715;DHT22;28351;51.480;5.706;2023-01-01T07:51:36;11.60;99.90
42715;DHT22;28351;51.480;5.706;2023-01-01T07:54:02;11.60;99.90
42715;DHT22;28351;51.480;5.706;2023-01-01T07:56:28;11.60;99.90
42715;DHT22;28351;51.480;5.706;2023-01-01T07:58:53;11.60;99.90
42715;DHT22;28351;51.480;5.706;2023-01-01T08:01:19;11.60;99.90
42715;DHT22;28351;51.480;5.706;2023-01-01T08:03:49;11.60;99.90
42715;DHT22;28351;51.480;5.706;2023-01-01T08:06:16;11.60;99.90
42715;DHT22;28351;51.480;5.706;2023-01-01T08:08:41;11.60;99.90
42715;DHT22;28351;51.480;5.706;2023-01-01T08:11:10;11.60;99.90
42715;DHT22;28351;51.480;5.706;2023-01-01T08:13:35;11.60;99.90
42715;DHT22;28351;51.480;5.706;2023-01-01T08:16:01;11.60;99.90
42715;DHT22;28351;51.480;5.706;2023-01-01T08:18:27;11.50;99.90
42715;DHT22;28351;51.480;5.706;2023-01-01T08:20:52;11.50;99.90
42715;DHT22;28351;51.480;5.706;2023-01-01T08:23:18;11.50;99.90
42715;DHT22;28351;51.480;5.706;2023-01-01T08:25:44;11.50;99.90
42715;DHT22;28351;51.480;5.706;2023-01-01T08:28:09;11.50;99.90
42715;DHT22;28351;51.480;5.706;2023-01-01T08:30:35;11.50;99.90
42715;DHT22;28351;51.480;5.706;2023-01-01T08:33:01;11.50;99.90
42715;DHT22;28351;51.480;5.706;2023-01-01T08:35:26;11.50;99.90
42715;DHT22;28351;51.480;5.706;2023-01-01T08:37:52;11.50;99.90
42715;DHT22;28351;51.480;5.706;2023-01-01T08:40:18;11.50;99.90
42715;DHT22;28351;51.480;5.706;2023-01-01T08:42:43;11.50;99.90
42715;DHT22;28351;51.480;5.706;2023-01-01T08:45:09;11.50;99.90
42715;DHT22;28351;51.480;5.706;2023-01-01T08:47:35;11.50;99.90
42715;DHT22;28351;51.480;5.706;2023-01-01T08:50:01;11.50;99.90
42715;DHT22;28351;51.480;5.706;2023-01-01T08:52:26;11.50;99.90
42715;DHT22;28351;51.480;5.706;2023-01-01T08:54:52;11.50;99.90
42715;DHT22;28351;51.480;5.706;2023-01-01T08:57:18;11.50;99.90
42715;DHT22;28351;51.480;5.706;2023-01-01T08:59:43;11.50;99.90
42715;DHT22;28351;51.480;5.706;2023-01-01T09:02:10;11.50;99.90
42715;DHT22;28351;51.480;5.706;2023-01-01T09:04:36;11.50;99.90
42715;DHT22;28351;51.480;5.706;2023-01-01T09:07:02;11.50;99.90
42715;DHT22;28351;51.480;5.706;2023-01-01T09:09:27;11.50;99.90
42715;DHT22;28351;51.480;5.706;2023-01-01T09:11:56;11.50;99.90
42715;DHT22;28351;51.480;5.706;2023-01-01T09:14:23;11.50;99.90
42715;DHT22;28351;51.480;5.706;2023-01-01T09:16:49;11.50;99.90
42715;DHT22;28351;51.480;5.706;2023-01-01T09:19:15;11.50;99.90
42715;DHT22;28351;51.480;5.706;2023-01-01T09:21:40;11.50;99.90
42715;DHT22;28351;51.480;5.706;2023-01-01T09:24:09;11.50;99.90
42715;DHT22;28351;51.480;5.706;2023-01-01T09:26:34;11.60;99.90
42715;DHT22;28351;51.480;5.706;2023-01-01T09:29:00;11.60;99.90
42715;DHT22;28351;51.480;5.706;2023-01-01T09:31:25;11.60;99.90
42715;DHT22;28351;51.480;5.706;2023-01-01T09:33:51;11.70;99.90
42715;DHT22;28351;51.480;5.706;2023-01-01T09:38:49;11.80;99.90
42715;DHT22;28351;51.480;5.706;2023-01-01T09:46:19;12.00;99.90
42715;DHT22;28351;51.480;5.706;2023-01-01T09:48:59;12.00;99.90
42715;DHT22;28351;51.480;5.706;2023-01-01T09:51:29;12.00;99.90
42715;DHT22;28351;51.480;5.706;2023-01-01T09:54:26;12.10;99.90
42715;DHT22;28351;51.480;5.706;2023-01-01T09:56:55;12.20;99.90
42715;DHT22;28351;51.480;5.706;2023-01-01T09:59:21;12.20;99.90
42715;DHT22;28351;51.480;5.706;2023-01-01T10:01:49;12.20;99.90
42715;DHT22;28351;51.480;5.706;2023-01-01T10:10:05;12.20;99.90
42715;DHT22;28351;51.480;5.706;2023-01-01T10:15:14;12.30;99.90
42715;DHT22;28351;51.480;5.706;2023-01-01T10:17:45;12.40;99.90
42715;DHT22;28351;51.480;5.706;2023-01-01T10:20:27;12.40;99.90
42715;DHT22;28351;51.480;5.706;2023-01-01T10:23:02;12.50;99.90
42715;DHT22;28351;51.480;5.706;2023-01-01T10:25:35;12.60;99.90
42715;DHT22;28351;51.480;5.706;2023-01-01T10:28:05;12.70;99.90
42715;DHT22;28351;51.480;5.706;2023-01-01T10:30:32;12.80;99.90
42715;DHT22;28351;51.480;5.706;2023-01-01T10:32:58;12.80;99.90
42715;DHT22;28351;51.480;5.706;2023-01-01T10:35:30;12.90;99.90
42715;DHT22;28351;51.480;5.706;2023-01-01T10:37:58;13.00;99.90
42715;DHT22;28351;51.480;5.706;2023-01-01T10:40:26;13.00;99.90
42715;DHT22;28351;51.480;5.706;2023-01-01T10:42:57;13.10;99.90
42715;DHT22;28351;51.480;5.706;2023-01-01T10:45:37;13.10;99.90
42715;DHT22;28351;51.480;5.706;2023-01-01T10:50:51;13.20;99.90
42715;DHT22;28351;51.480;5.706;2023-01-01T10:56:09;13.40;99.90
42715;DHT22;28351;51.480;5.706;2023-01-01T10:58:37;13.50;99.90
42715;DHT22;28351;51.480;5.706;2023-01-01T11:01:05;13.60;99.90
42715;DHT22;28351;51.480;5.706;2023-01-01T11:03:32;13.70;99.90
42715;DHT22;28351;51.480;5.706;2023-01-01T11:08:47;13.80;99.90
42715;DHT22;28351;51.480;5.706;2023-01-01T11:11:28;13.90;99.90
42715;DHT22;28351;51.480;5.706;2023-01-01T11:14:00;13.90;99.90
42715;DHT22;28351;51.480;5.706;2023-01-01T11:16:29;14.00;99.90
42715;DHT22;28351;51.480;5.706;2023-01-01T11:19:03;14.00;99.90
42715;DHT22;28351;51.480;5.706;2023-01-01T11:21:30;14.10;99.90
42715;DHT22;28351;51.480;5.706;2023-01-01T11:24:22;14.20;99.90
42715;DHT22;28351;51.480;5.706;2023-01-01T11:26:49;14.10;99.90
42715;DHT22;28351;51.480;5.706;2023-01-01T11:31:42;14.20;99.90
42715;DHT22;28351;51.480;5.706;2023-01-01T11:34:30;14.10;99.90
42715;DHT22;28351;51.480;5.706;2023-01-01T11:37:26;14.10;99.90
42715;DHT22;28351;51.480;5.706;2023-01-01T11:39:55;14.10;99.90
42715;DHT22;28351;51.480;5.706;2023-01-01T11:42:30;14.10;99.90
42715;DHT22;28351;51.480;5.706;2023-01-01T11:45:18;14.10;99.90
42715;DHT22;28351;51.480;5.706;2023-01-01T11:47:43;14.10;99.90
42715;DHT22;28351;51.480;5.706;2023-01-01T11:50:30;14.30;99.90
42715;DHT22;28351;51.480;5.706;2023-01-01T11:52:58;14.40;99.90
42715;DHT22;28351;51.480;5.706;2023-01-01T11:55:44;14.40;99.90
42715;DHT22;28351;51.480;5.706;2023-01-01T12:00:51;14.40;99.90
42715;DHT22;28351;51.480;5.706;2023-01-01T12:03:25;14.50;99.90
42715;DHT22;28351;51.480;5.706;2023-01-01T12:05:59;14.40;99.90
42715;DHT22;28351;51.480;5.706;2023-01-01T12:08:37;14.40;99.90
42715;DHT22;28351;51.480;5.706;2023-01-01T12:11:28;14.30;99.90
42715;DHT22;28351;51.480;5.706;2023-01-01T12:17:09;14.30;99.90
42715;DHT22;28351;51.480;5.706;2023-01-01T12:22:19;14.30;99.90
42715;DHT22;28351;51.480;5.706;2023-01-01T12:24:46;14.40;99.90
42715;DHT22;28351;51.480;5.706;2023-01-01T12:38:09;14.30;99.90
42715;DHT22;28351;51.480;5.706;2023-01-01T12:46:48;14.30;99.90
42715;DHT22;28351;51.480;5.706;2023-01-01T12:59:53;13.80;99.90
42715;DHT22;28351;51.480;5.706;2023-01-01T13:02:23;13.80;99.90
42715;DHT22;28351;51.480;5.706;2023-01-01T13:04:55;13.90;99.90
42715;DHT22;28351;51.480;5.706;2023-01-01T13:07:38;13.90;99.90
42715;DHT22;28351;51.480;5.706;2023-01-01T13:10:23;13.90;99.90
42715;DHT22;28351;51.480;5.706;2023-01-01T13:12:51;13.90;99.90
42715;DHT22;28351;51.480;5.706;2023-01-01T13:20:45;13.90;99.90
42715;DHT22;28351;51.480;5.706;2023-01-01T13:26:34;13.90;99.90
42715;DHT22;28351;51.480;5.706;2023-01-01T13:42:45;13.80;99.90
42715;DHT22;28351;51.480;5.706;2023-01-01T14:04:48;13.50;99.90
42715;DHT22;28351;51.480;5.706;2023-01-01T14:09:49;13.40;99.90
42715;DHT22;28351;51.480;5.706;2023-01-01T14:12:19;13.40;99.90
42715;DHT22;28351;51.480;5.706;2023-01-01T14:14:46;13.40;99.90
42715;DHT22;28351;51.480;5.706;2023-01-01T14:17:16;13.30;99.90
42715;DHT22;28351;51.480;5.706;2023-01-01T14:19:42;13.30;99.90
42715;DHT22;28351;51.480;5.706;2023-01-01T14:22:10;13.30;99.90
42715;DHT22;28351;51.480;5.706;2023-01-01T14:24:45;13.30;99.90
42715;DHT22;28351;51.480;5.706;2023-01-01T14:27:19;13.30;99.90
42715;DHT22;28351;51.480;5.706;2023-01-01T14:29:47;13.30;99.90
42715;DHT22;28351;51.480;5.706;2023-01-01T14:32:21;13.30;99.90
42715;DHT22;28351;51.480;5.706;2023-01-01T14:34:57;13.30;99.90
42715;DHT22;28351;51.480;5.706;2023-01-01T14:37:24;13.30;99.90
42715;DHT22;28351;51.480;5.706;2023-01-01T14:40:27;13.30;99.90
42715;DHT22;28351;51.480;5.706;2023-01-01T14:43:05;13.20;99.90
42715;DHT22;28351;51.480;5.706;2023-01-01T14:45:35;13.20;99.90
42715;DHT22;28351;51.480;5.706;2023-01-01T14:48:01;13.10;99.90
42715;DHT22;28351;51.480;5.706;2023-01-01T14:50:29;13.10;99.90
42715;DHT22;28351;51.480;5.706;2023-01-01T14:53:12;13.10;99.90
42715;DHT22;28351;51.480;5.706;2023-01-01T14:55:44;13.10;99.90
42715;DHT22;28351;51.480;5.706;2023-01-01T14:58:15;13.00;99.90
42715;DHT22;28351;51.480;5.706;2023-01-01T15:00:41;12.90;99.90
42715;DHT22;28351;51.480;5.706;2023-01-01T15:03:19;12.90;99.90
42715;DHT22;28351;51.480;5.706;2023-01-01T15:05:59;12.90;99.90
42715;DHT22;28351;51.480;5.706;2023-01-01T15:08:26;12.90;99.90
42715;DHT22;28351;51.480;5.706;2023-01-01T15:10:52;12.90;99.90
42715;DHT22;28351;51.480;5.706;2023-01-01T15:13:26;12.90;99.90
42715;DHT22;28351;51.480;5.706;2023-01-01T15:16:00;12.80;99.90
42715;DHT22;28351;51.480;5.706;2023-01-01T15:23:51;12.80;99.90
42715;DHT22;28351;51.480;5.706;2023-01-01T15:26:26;12.80;99.90
42715;DHT22;28351;51.480;5.706;2023-01-01T15:28:54;12.80;99.90
42715;DHT22;28351;51.480;5.706;2023-01-01T15:31:20;12.70;99.90
42715;DHT22;28351;51.480;5.706;2023-01-01T15:33:46;12.80;99.90
42715;DHT22;28351;51.480;5.706;2023-01-01T15:36:12;12.70;99.90
42715;DHT22;28351;51.480;5.706;2023-01-01T15:38:44;12.70;99.90
42715;DHT22;28351;51.480;5.706;2023-01-01T15:41:44;12.60;99.90
42715;DHT22;28351;51.480;5.706;2023-01-01T15:44:53;12.60;99.90
42715;DHT22;28351;51.480;5.706;2023-01-01T15:47:14;12.60;99.90
42715;DHT22;28351;51.480;5.706;2023-01-01T15:49:40;12.60;99.90
42715;DHT22;28351;51.480;5.706;2023-01-01T15:52:20;12.50;99.90
42715;DHT22;28351;51.480;5.706;2023-01-01T15:54:48;12.50;99.90
42715;DHT22;28351;51.480;5.706;2023-01-01T15:57:19;12.60;99.90
42715;DHT22;28351;51.480;5.706;2023-01-01T15:59:49;12.60;99.90
42715;DHT22;28351;51.480;5.706;2023-01-01T16:02:29;12.60;99.90
42715;DHT22;28351;51.480;5.706;2023-01-01T16:04:56;12.60;99.90
42715;DHT22;28351;51.480;5.706;2023-01-01T16:07:29;12.60;99.90
42715;DHT22;28351;51.480;5.706;2023-01-01T16:09:55;12.50;99.90
42715;DHT22;28351;51.480;5.706;2023-01-01T16:12:21;12.50;99.90
42715;DHT22;28351;51.480;5.706;2023-01-01T16:14:46;12.50;99.90
42715;DHT22;28351;51.480;5.706;2023-01-01T16:17:15;12.60;99.90
42715;DHT22;28351;51.480;5.706;2023-01-01T16:19:42;12.60;99.90
42715;DHT22;28351;51.480;5.706;2023-01-01T16:22:13;12.50;99.90
42715;DHT22;28351;51.480;5.706;2023-01-01T16:24:40;12.40;99.90
42715;DHT22;28351;51.480;5.706;2023-01-01T16:27:08;12.30;99.90
42715;DHT22;28351;51.480;5.706;2023-01-01T16:29:34;12.30;99.90
42715;DHT22;28351;51.480;5.706;2023-01-01T16:31:59;12.20;99.90
42715;DHT22;28351;51.480;5.706;2023-01-01T16:34:25;12.10;99.90
42715;DHT22;28351;51.480;5.706;2023-01-01T16:36:51;12.00;99.90
42715;DHT22;28351;51.480;5.706;2023-01-01T16:39:17;11.90;99.90
42715;DHT22;28351;51.480;5.706;2023-01-01T16:41:55;11.90;99.90
42715;DHT22;28351;51.480;5.706;2023-01-01T16:44:40;11.80;99.90
42715;DHT22;28351;51.480;5.706;2023-01-01T16:47:06;11.70;99.90
42715;DHT22;28351;51.480;5.706;2023-01-01T16:49:31;11.70;99.90
42715;DHT22;28351;51.480;5.706;2023-01-01T16:51:57;11.60;99.90
42715;DHT22;28351;51.480;5.706;2023-01-01T16:54:23;11.60;99.90
42715;DHT22;28351;51.480;5.706;2023-01-01T16:56:48;11.50;99.90
42715;DHT22;28351;51.480;5.706;2023-01-01T16:59:14;11.50;99.90
42715;DHT22;28351;51.480;5.706;2023-01-01T17:01:40;11.50;99.90
42715;DHT22;28351;51.480;5.706;2023-01-01T17:04:05;11.50;99.90
42715;DHT22;28351;51.480;5.706;2023-01-01T17:06:31;11.50;99.90
42715;DHT22;28351;51.480;5.706;2023-01-01T17:09:00;11.50;99.90
42715;DHT22;28351;51.480;5.706;2023-01-01T17:11:25;11.40;99.90
42715;DHT22;28351;51.480;5.706;2023-01-01T17:13:51;11.40;99.90
42715;DHT22;28351;51.480;5.706;2023-01-01T17:16:17;11.40;99.90
42715;DHT22;28351;51.480;5.706;2023-01-01T17:18:50;11.40;99.90
42715;DHT22;28351;51.480;5.706;2023-01-01T17:21:16;11.40;99.90
42715;DHT22;28351;51.480;5.706;2023-01-01T17:23:42;11.40;99.90
42715;DHT22;28351;51.480;5.706;2023-01-01T17:26:15;11.40;99.90
42715;DHT22;28351;51.480;5.706;2023-01-01T17:28:42;11.40;99.90
42715;DHT22;28351;51.480;5.706;2023-01-01T17:31:10;11.40;99.90
42715;DHT22;28351;51.480;5.706;2023-01-01T17:33:37;11.40;99.90
42715;DHT22;28351;51.480;5.706;2023-01-01T17:36:05;11.30;99.90
42715;DHT22;28351;51.480;5.706;2023-01-01T17:38:31;11.30;99.90
42715;DHT22;28351;51.480;5.706;2023-01-01T17:41:02;11.40;99.90
42715;DHT22;28351;51.480;5.706;2023-01-01T17:43:30;11.30;99.90
42715;DHT22;28351;51.480;5.706;2023-01-01T17:46:00;11.30;99.90
42715;DHT22;28351;51.480;5.706;2023-01-01T17:48:25;11.20;99.90
42715;DHT22;28351;51.480;5.706;2023-01-01T17:50:51;11.20;99.90
42715;DHT22;28351;51.480;5.706;2023-01-01T17:53:17;11.20;99.90
42715;DHT22;28351;51.480;5.706;2023-01-01T17:55:42;11.20;99.90
42715;DHT22;28351;51.480;5.706;2023-01-01T17:58:08;11.20;99.90
42715;DHT22;28351;51.480;5.706;2023-01-01T18:00:33;11.20;99.90
42715;DHT22;28351;51.480;5.706;2023-01-01T18:02:59;11.20;99.90
42715;DHT22;28351;51.480;5.706;2023-01-01T18:05:25;11.10;99.90
42715;DHT22;28351;51.480;5.706;2023-01-01T18:07:51;11.10;99.90
42715;DHT22;28351;51.480;5.706;2023-01-01T18:10:17;11.10;99.90
42715;DHT22;28351;51.480;5.706;2023-01-01T18:12:42;11.10;99.90
42715;DHT22;28351;51.480;5.706;2023-01-01T18:15:08;11.10;99.90
42715;DHT22;28351;51.480;5.706;2023-01-01T18:17:34;11.10;99.90
42715;DHT22;28351;51.480;5.706;2023-01-01T18:19:59;11.10;99.90
42715;DHT22;28351;51.480;5.706;2023-01-01T18:22:25;11.10;99.90
42715;DHT22;28351;51.480;5.706;2023-01-01T18:24:51;11.10;99.90
42715;DHT22;28351;51.480;5.706;2023-01-01T18:27:19;11.10;99.90